Wetterdaten: Woche 27.05.13 - 02.06.13 (KW22)
Datum Zeit Temp. A. Feuchte A. Luftdruck Regen Wind Richtung Taupunkt Windchill Windben
27.05.2013 00:00 10,7 C 98 % 1003,4 hPa 0,0 l/m 1,9 km/h (1 Bft) N-NW 10,4 C 10,7 C 3,9 km/h (1 Bft)
27.05.2013 01:00 10,6 C 98 % 1003,5 hPa 0,0 l/m 0,1 km/h (0 Bft) N 10,3 C 10,6 C 0,5 km/h (0 Bft)
27.05.2013 02:00 10,5 C 98 % 1003,7 hPa 1,0 l/m 0,0 km/h (0 Bft) N 10,2 C 10,5 C 0,0 km/h (0 Bft)
27.05.2013 03:00 10,4 C 98 % 1003,8 hPa 0,0 l/m 0,0 km/h (0 Bft) N 10,1 C 10,4 C 0,0 km/h (0 Bft)
27.05.2013 04:00 10,4 C 98 % 1003,9 hPa 1,0 l/m 0,0 km/h (0 Bft) N 10,1 C 10,4 C 0,0 km/h (0 Bft)
27.05.2013 05:00 10,3 C 98 % 1004,2 hPa 1,8 l/m 0,1 km/h (0 Bft) W 10,0 C 10,3 C 0,7 km/h (0 Bft)
27.05.2013 06:00 9,9 C 98 % 1004,6 hPa 0,6 l/m 1,0 km/h (0 Bft) W-NW 9,6 C 9,9 C 4,0 km/h (1 Bft)
27.05.2013 07:00 9,7 C 98 % 1005,1 hPa 0,0 l/m 1,0 km/h (0 Bft) W 9,4 C 9,7 C 4,7 km/h (1 Bft)
27.05.2013 08:00 9,6 C 98 % 1005,8 hPa 0,2 l/m 1,3 km/h (1 Bft) W 9,3 C 9,6 C 5,1 km/h (1 Bft)
27.05.2013 09:00 9,8 C 98 % 1006,4 hPa 0,0 l/m 0,8 km/h (0 Bft) W 9,5 C 9,8 C 3,1 km/h (1 Bft)
27.05.2013 10:00 10,3 C 98 % 1006,9 hPa 0,0 l/m 1,4 km/h (1 Bft) W 10,0 C 10,3 C 4,7 km/h (1 Bft)
27.05.2013 11:00 10,5 C 98 % 1007,3 hPa 0,0 l/m 1,6 km/h (1 Bft) W 10,2 C 10,5 C 5,6 km/h (2 Bft)
27.05.2013 12:00 11,0 C 98 % 1007,7 hPa 0,0 l/m 1,9 km/h (1 Bft) W 10,7 C 11,0 C 5,7 km/h (2 Bft)
27.05.2013 13:00 11,0 C 98 % 1008,2 hPa 0,0 l/m 1,4 km/h (1 Bft) W 10,7 C 11,0 C 5,5 km/h (2 Bft)
27.05.2013 14:00 10,9 C 98 % 1008,7 hPa 0,2 l/m 1,1 km/h (1 Bft) W-SW 10,6 C 10,9 C 4,7 km/h (1 Bft)
27.05.2013 15:00 11,3 C 98 % 1009,1 hPa 0,0 l/m 2,3 km/h (1 Bft) W-SW 10,9 C 11,3 C 7,1 km/h (2 Bft)
27.05.2013 16:00 11,9 C 95 % 1009,3 hPa 0,0 l/m 3,1 km/h (1 Bft) W 11,1 C 11,9 C 8,6 km/h (2 Bft)
27.05.2013 17:00 12,0 C 93 % 1009,3 hPa 0,0 l/m 2,9 km/h (1 Bft) W-SW 10,9 C 12,0 C 7,5 km/h (2 Bft)
27.05.2013 18:00 12,1 C 92 % 1009,3 hPa 0,0 l/m 2,8 km/h (1 Bft) S-SW 10,8 C 12,1 C 8,2 km/h (2 Bft)
27.05.2013 19:00 12,4 C 90 % 1009,3 hPa 0,0 l/m 2,3 km/h (1 Bft) W 10,9 C 12,4 C 6,9 km/h (2 Bft)
27.05.2013 20:00 12,3 C 89 % 1009,2 hPa 0,0 l/m 1,5 km/h (1 Bft) W 10,6 C 12,3 C 4,8 km/h (1 Bft)
27.05.2013 21:00 10,4 C 93 % 1009,4 hPa 0,0 l/m 0,0 km/h (0 Bft) N 9,4 C 10,4 C 0,0 km/h (0 Bft)
27.05.2013 22:00 8,3 C 96 % 1009,5 hPa 0,0 l/m 0,0 km/h (0 Bft) N 7,6 C 8,3 C 0,0 km/h (0 Bft)
27.05.2013 23:00 7,5 C 97 % 1009,7 hPa 0,0 l/m 0,0 km/h (0 Bft) N 7,1 C 7,5 C 0,0 km/h (0 Bft)
28.05.2013 00:00 6,8 C 97 % 1010,0 hPa 0,0 l/m 0,0 km/h (0 Bft) N 6,3 C 6,8 C 0,0 km/h (0 Bft)
28.05.2013 01:00 8,6 C 98 % 1009,5 hPa 0,2 l/m 0,3 km/h (0 Bft) W 8,3 C 8,6 C 1,6 km/h (1 Bft)
28.05.2013 02:00 8,9 C 98 % 1009,2 hPa 0,0 l/m 0,8 km/h (0 Bft) W-SW 8,6 C 8,9 C 2,9 km/h (1 Bft)
28.05.2013 03:00 8,8 C 98 % 1008,7 hPa 0,0 l/m 0,2 km/h (0 Bft) N 8,5 C 8,8 C 0,8 km/h (0 Bft)
28.05.2013 04:00 8,8 C 98 % 1008,1 hPa 0,0 l/m 0,0 km/h (0 Bft) N 8,5 C 8,8 C 0,0 km/h (0 Bft)
28.05.2013 05:00 8,8 C 98 % 1007,9 hPa 0,0 l/m 0,0 km/h (0 Bft) N 8,5 C 8,8 C 0,0 km/h (0 Bft)
28.05.2013 06:00 8,8 C 98 % 1007,6 hPa 0,0 l/m 0,0 km/h (0 Bft) N 8,5 C 8,8 C 0,0 km/h (0 Bft)
28.05.2013 07:00 8,8 C 98 % 1007,5 hPa 0,0 l/m 0,0 km/h (0 Bft) N 8,5 C 8,8 C 0,0 km/h (0 Bft)
28.05.2013 08:00 8,8 C 98 % 1007,5 hPa 0,0 l/m 0,4 km/h (0 Bft) W-NW 8,5 C 8,8 C 2,0 km/h (1 Bft)
28.05.2013 09:00 9,4 C 98 % 1007,4 hPa 0,0 l/m 1,1 km/h (0 Bft) W 9,1 C 9,4 C 3,7 km/h (1 Bft)
28.05.2013 10:00 10,7 C 97 % 1007,0 hPa 0,0 l/m 1,6 km/h (1 Bft) W 10,3 C 10,7 C 4,9 km/h (1 Bft)
28.05.2013 11:00 13,6 C 89 % 1006,4 hPa 0,0 l/m 2,5 km/h (1 Bft) NW 11,8 C 13,6 C 7,5 km/h (2 Bft)
28.05.2013 12:00 16,2 C 81 % 1005,7 hPa 0,0 l/m 3,2 km/h (1 Bft) W-SW 13,0 C 16,2 C 7,8 km/h (2 Bft)
28.05.2013 13:00 18,0 C 74 % 1004,8 hPa 0,0 l/m 3,5 km/h (1 Bft) W 13,3 C 18,0 C 8,4 km/h (2 Bft)
28.05.2013 14:00 17,8 C 70 % 1004,1 hPa 0,0 l/m 2,4 km/h (1 Bft) W 12,2 C 17,8 C 6,0 km/h (2 Bft)
28.05.2013 15:00 17,6 C 73 % 1003,4 hPa 0,0 l/m 5,6 km/h (2 Bft) N 12,6 C 17,4 C 9,9 km/h (2 Bft)
28.05.2013 16:00 16,8 C 76 % 1003,0 hPa 0,0 l/m 5,9 km/h (2 Bft) N 12,4 C 16,7 C 11,0 km/h (2 Bft)
28.05.2013 17:00 16,7 C 75 % 1002,3 hPa 0,0 l/m 5,4 km/h (2 Bft) N-NW 12,3 C 16,7 C 9,8 km/h (2 Bft)
28.05.2013 18:00 15,8 C 79 % 1001,8 hPa 0,0 l/m 4,2 km/h (1 Bft) NW 12,1 C 15,8 C 8,2 km/h (2 Bft)
28.05.2013 19:00 15,8 C 82 % 1001,3 hPa 0,0 l/m 3,6 km/h (1 Bft) N-NO 12,7 C 15,6 C 7,5 km/h (2 Bft)
28.05.2013 20:00 14,7 C 87 % 1001,0 hPa 0,0 l/m 5,1 km/h (1 Bft) N-NO 12,5 C 14,4 C 9,7 km/h (2 Bft)
28.05.2013 21:00 14,0 C 89 % 1000,9 hPa 0,0 l/m 5,8 km/h (2 Bft) N-NO 12,3 C 13,7 C 10,6 km/h (2 Bft)
28.05.2013 22:00 13,5 C 92 % 1000,5 hPa 0,0 l/m 1,7 km/h (1 Bft) N 12,1 C 13,5 C 3,7 km/h (1 Bft)
28.05.2013 23:00 13,1 C 94 % 1000,0 hPa 0,0 l/m 1,6 km/h (1 Bft) N 12,1 C 13,1 C 3,3 km/h (1 Bft)
29.05.2013 00:00 12,7 C 92 % 999,7 hPa 0,0 l/m 5,9 km/h (2 Bft) N-NO 11,4 C 12,7 C 11,6 km/h (2 Bft)
29.05.2013 01:00 11,8 C 92 % 999,3 hPa 0,0 l/m 6,1 km/h (2 Bft) N-NO 10,6 C 11,8 C 11,9 km/h (2 Bft)
29.05.2013 02:00 11,2 C 94 % 998,8 hPa 0,0 l/m 4,3 km/h (1 Bft) N-NO 10,2 C 11,2 C 8,0 km/h (2 Bft)
29.05.2013 03:00 11,2 C 94 % 998,4 hPa 0,0 l/m 0,2 km/h (0 Bft) N 10,3 C 11,2 C 0,8 km/h (0 Bft)
29.05.2013 04:00 11,3 C 94 % 998,0 hPa 0,0 l/m 0,1 km/h (0 Bft) N 10,3 C 11,3 C 0,5 km/h (0 Bft)
29.05.2013 05:00 11,2 C 95 % 997,9 hPa 0,0 l/m 1,6 km/h (1 Bft) N 10,4 C 11,2 C 4,0 km/h (1 Bft)
29.05.2013 06:00 11,1 C 95 % 997,6 hPa 0,0 l/m 2,6 km/h (1 Bft) N-NW 10,3 C 11,1 C 4,7 km/h (1 Bft)
29.05.2013 07:00 11,2 C 94 % 997,3 hPa 0,0 l/m 4,1 km/h (1 Bft) N-NW 10,3 C 11,2 C 7,5 km/h (2 Bft)
29.05.2013 08:00 11,1 C 93 % 997,6 hPa 0,0 l/m 3,9 km/h (1 Bft) N-NO 10,1 C 11,1 C 7,2 km/h (2 Bft)
29.05.2013 09:00 11,3 C 93 % 997,8 hPa 0,0 l/m 3,2 km/h (1 Bft) N-NO 10,2 C 11,3 C 6,1 km/h (2 Bft)
29.05.2013 10:00 12,1 C 91 % 997,9 hPa 0,0 l/m 1,6 km/h (1 Bft) NO 10,7 C 12,1 C 4,3 km/h (1 Bft)
29.05.2013 11:00 13,8 C 85 % 998,0 hPa 0,0 l/m 1,6 km/h (1 Bft) O-NO 11,4 C 13,8 C 4,3 km/h (1 Bft)
29.05.2013 12:00 14,7 C 82 % 998,4 hPa 0,0 l/m 2,3 km/h (1 Bft) O 11,6 C 14,7 C 5,1 km/h (1 Bft)
29.05.2013 13:00 15,2 C 81 % 998,7 hPa 0,0 l/m 2,5 km/h (1 Bft) SO 11,8 C 15,2 C 6,0 km/h (2 Bft)
29.05.2013 14:00 17,2 C 71 % 998,8 hPa 0,0 l/m 4,9 km/h (1 Bft) S-SW 11,9 C 17,2 C 10,6 km/h (2 Bft)
29.05.2013 15:00 17,6 C 69 % 999,1 hPa 0,0 l/m 4,3 km/h (1 Bft) SW 11,8 C 17,6 C 9,8 km/h (2 Bft)
29.05.2013 16:00 16,2 C 81 % 999,5 hPa 0,2 l/m 4,2 km/h (1 Bft) SW 12,9 C 16,1 C 9,2 km/h (2 Bft)
29.05.2013 17:00 16,4 C 80 % 999,9 hPa 0,0 l/m 3,5 km/h (1 Bft) O 12,9 C 16,4 C 7,6 km/h (2 Bft)
29.05.2013 18:00 16,3 C 80 % 1000,3 hPa 0,0 l/m 1,3 km/h (1 Bft) SO 12,9 C 16,3 C 4,1 km/h (1 Bft)
29.05.2013 19:00 15,1 C 84 % 1001,0 hPa 0,4 l/m 1,9 km/h (1 Bft) SW 12,5 C 15,1 C 5,2 km/h (1 Bft)
29.05.2013 20:00 13,7 C 90 % 1001,9 hPa 3,0 l/m 0,6 km/h (0 Bft) SO 12,1 C 13,7 C 1,8 km/h (1 Bft)
29.05.2013 21:00 13,0 C 94 % 1002,6 hPa 1,4 l/m 0,0 km/h (0 Bft) N 12,1 C 13,0 C 0,0 km/h (0 Bft)
29.05.2013 22:00 12,9 C 95 % 1003,0 hPa 0,0 l/m 0,0 km/h (0 Bft) N 12,1 C 12,9 C 0,3 km/h (0 Bft)
29.05.2013 23:00 12,9 C 95 % 1003,5 hPa 0,0 l/m 0,0 km/h (0 Bft) N 12,1 C 12,9 C 0,0 km/h (0 Bft)
30.05.2013 00:00 12,9 C 95 % 1004,1 hPa 0,0 l/m 0,0 km/h (0 Bft) N 12,1 C 12,9 C 0,0 km/h (0 Bft)
30.05.2013 01:00 12,9 C 95 % 1004,3 hPa 0,0 l/m 0,0 km/h (0 Bft) N 12,1 C 12,9 C 0,0 km/h (0 Bft)
30.05.2013 02:00 12,9 C 95 % 1004,4 hPa 0,0 l/m 0,0 km/h (0 Bft) N 12,1 C 12,9 C 0,0 km/h (0 Bft)
30.05.2013 03:00 12,9 C 95 % 1004,6 hPa 0,0 l/m 0,0 km/h (0 Bft) N 12,1 C 12,9 C 0,0 km/h (0 Bft)
30.05.2013 04:00 12,7 C 95 % 1004,6 hPa 0,0 l/m 0,0 km/h (0 Bft) W 11,9 C 12,7 C 0,0 km/h (0 Bft)
30.05.2013 05:00 10,6 C 95 % 1005,0 hPa 0,0 l/m 1,2 km/h (1 Bft) W 9,8 C 10,6 C 4,9 km/h (1 Bft)
30.05.2013 06:00 10,6 C 95 % 1005,7 hPa 0,0 l/m 0,3 km/h (0 Bft) N 9,8 C 10,6 C 1,6 km/h (1 Bft)
30.05.2013 07:00 10,8 C 95 % 1006,2 hPa 0,0 l/m 0,6 km/h (0 Bft) SW 10,1 C 10,8 C 3,1 km/h (1 Bft)
30.05.2013 08:00 11,4 C 93 % 1006,5 hPa 0,0 l/m 1,4 km/h (1 Bft) W 10,4 C 11,4 C 4,9 km/h (1 Bft)
30.05.2013 09:00 11,9 C 92 % 1006,8 hPa 0,0 l/m 1,5 km/h (1 Bft) W-SW 10,7 C 11,9 C 5,2 km/h (1 Bft)
30.05.2013 10:00 12,4 C 91 % 1007,0 hPa 0,0 l/m 2,1 km/h (1 Bft) SW 10,9 C 12,4 C 6,8 km/h (2 Bft)
30.05.2013 11:00 13,7 C 88 % 1007,0 hPa 0,0 l/m 3,1 km/h (1 Bft) W-NW 11,8 C 13,7 C 7,2 km/h (2 Bft)
30.05.2013 12:00 14,4 C 87 % 1007,2 hPa 0,0 l/m 2,5 km/h (1 Bft) W-NW 12,2 C 14,4 C 6,0 km/h (2 Bft)
30.05.2013 13:00 14,3 C 87 % 1007,4 hPa 0,0 l/m 1,8 km/h (1 Bft) W-NW 12,2 C 14,3 C 5,2 km/h (1 Bft)
30.05.2013 14:00 15,4 C 85 % 1007,3 hPa 0,0 l/m 2,9 km/h (1 Bft) W 12,9 C 15,4 C 6,9 km/h (2 Bft)
30.05.2013 15:00 16,8 C 81 % 1006,7 hPa 0,0 l/m 2,6 km/h (1 Bft) W 13,5 C 16,8 C 5,4 km/h (1 Bft)
30.05.2013 16:00 18,0 C 78 % 1006,4 hPa 0,0 l/m 4,5 km/h (1 Bft) W-NW 14,1 C 18,0 C 10,5 km/h (2 Bft)
30.05.2013 17:00 18,5 C 76 % 1006,0 hPa 0,0 l/m 4,3 km/h (1 Bft) W-NW 14,2 C 18,5 C 11,2 km/h (2 Bft)
30.05.2013 18:00 16,9 C 82 % 1006,0 hPa 8,0 l/m 4,1 km/h (1 Bft) W-NW 13,9 C 16,8 C 9,4 km/h (2 Bft)
30.05.2013 19:00 14,7 C 94 % 1005,9 hPa 1,6 l/m 3,0 km/h (1 Bft) W-NW 13,7 C 14,7 C 7,0 km/h (2 Bft)
30.05.2013 20:00 14,7 C 95 % 1005,5 hPa 0,0 l/m 5,4 km/h (1 Bft) NW 13,9 C 14,7 C 11,0 km/h (2 Bft)
30.05.2013 21:00 14,6 C 94 % 1005,3 hPa 0,0 l/m 6,4 km/h (2 Bft) N-NW 13,7 C 14,5 C 12,6 km/h (3 Bft)
30.05.2013 22:00 14,3 C 94 % 1005,1 hPa 0,0 l/m 7,5 km/h (2 Bft) N-NW 13,4 C 13,6 C 13,8 km/h (3 Bft)
30.05.2013 23:00 14,1 C 93 % 1004,5 hPa 0,0 l/m 10,0 km/h (2 Bft) N-NW 12,9 C 12,1 C 18,6 km/h (3 Bft)
31.05.2013 00:00 13,5 C 92 % 1004,3 hPa 0,0 l/m 11,4 km/h (2 Bft) N-NW 12,2 C 10,8 C 19,7 km/h (3 Bft)
31.05.2013 01:00 12,7 C 92 % 1004,0 hPa 0,0 l/m 12,6 km/h (3 Bft) N 11,4 C 9,3 C 21,4 km/h (4 Bft)
31.05.2013 02:00 12,5 C 91 % 1003,9 hPa 0,0 l/m 12,2 km/h (2 Bft) NO 11,1 C 9,4 C 20,5 km/h (4 Bft)
31.05.2013 03:00 12,3 C 92 % 1002,9 hPa 1,0 l/m 13,1 km/h (3 Bft) N 11,0 C 8,6 C 21,2 km/h (4 Bft)
31.05.2013 04:00 12,1 C 92 % 1003,0 hPa 0,0 l/m 14,3 km/h (3 Bft) N-NO 10,8 C 7,9 C 14,9 km/h (3 Bft)
31.05.2013 05:00 11,7 C 95 % 1003,1 hPa 4,6 l/m 13,8 km/h (3 Bft) N-NO 11,0 C 7,7 C 21,0 km/h (4 Bft)
31.05.2013 06:00 11,7 C 97 % 1003,4 hPa 1,6 l/m 13,2 km/h (3 Bft) N 11,2 C 8,0 C 21,6 km/h (4 Bft)
31.05.2013 07:00 11,8 C 97 % 1003,7 hPa 1,4 l/m 15,1 km/h (3 Bft) N-NW 11,4 C 7,3 C 24,8 km/h (4 Bft)
31.05.2013 08:00 11,9 C 97 % 1003,7 hPa 1,4 l/m 15,2 km/h (3 Bft) N-NO 11,4 C 7,3 C 25,2 km/h (4 Bft)
31.05.2013 09:00 11,5 C 97 % 1004,1 hPa 2,4 l/m 14,1 km/h (3 Bft) N-NO 11,0 C 7,3 C 22,2 km/h (4 Bft)
31.05.2013 10:00 12,1 C 98 % 1003,8 hPa 0,2 l/m 10,1 km/h (2 Bft) N-NW 11,8 C 10,0 C 17,2 km/h (3 Bft)
31.05.2013 11:00 14,8 C 93 % 1003,4 hPa 0,0 l/m 14,4 km/h (3 Bft) N-NO 13,6 C 11,1 C 25,2 km/h (4 Bft)
31.05.2013 12:00 17,2 C 85 % 1003,7 hPa 0,0 l/m 13,4 km/h (3 Bft) N 14,6 C 14,3 C 19,3 km/h (3 Bft)
31.05.2013 13:00 17,4 C 83 % 1003,8 hPa 0,0 l/m 14,6 km/h (3 Bft) N 14,5 C 14,3 C 15,4 km/h (3 Bft)
31.05.2013 14:00 19,8 C 73 % 1003,7 hPa 0,0 l/m 17,1 km/h (3 Bft) N-NO 14,8 C 16,5 C 28,3 km/h (5 Bft)
31.05.2013 15:00 20,0 C 72 % 1003,6 hPa 0,0 l/m 18,5 km/h (3 Bft) N 14,8 C 16,6 C 30,6 km/h (5 Bft)
31.05.2013 16:00 20,6 C 70 % 1003,5 hPa 0,0 l/m 19,9 km/h (4 Bft) N-NO 14,8 C 17,0 C 32,7 km/h (5 Bft)
31.05.2013 17:00 20,0 C 72 % 1003,9 hPa 0,0 l/m 19,3 km/h (3 Bft) N-NO 14,8 C 16,3 C 31,1 km/h (5 Bft)
31.05.2013 18:00 19,0 C 78 % 1004,7 hPa 0,0 l/m 16,4 km/h (3 Bft) N-NW 15,0 C 15,8 C 26,7 km/h (4 Bft)
31.05.2013 19:00 18,3 C 81 % 1005,1 hPa 0,0 l/m 12,9 km/h (3 Bft) N-NO 15,1 C 15,8 C 22,0 km/h (4 Bft)
31.05.2013 20:00 17,9 C 84 % 1005,6 hPa 0,0 l/m 10,8 km/h (2 Bft) N-NO 15,1 C 16,0 C 18,2 km/h (3 Bft)
31.05.2013 21:00 17,2 C 86 % 1006,0 hPa 0,0 l/m 8,9 km/h (2 Bft) N-NO 14,9 C 16,1 C 15,6 km/h (3 Bft)
31.05.2013 22:00 16,5 C 88 % 1006,3 hPa 0,0 l/m 8,8 km/h (2 Bft) N 14,5 C 15,4 C 16,4 km/h (3 Bft)
31.05.2013 23:00 16,2 C 89 % 1006,2 hPa 0,0 l/m 9,8 km/h (2 Bft) N-NW 14,3 C 14,5 C 17,7 km/h (3 Bft)
01.06.2013 00:00 16,3 C 89 % 1006,5 hPa 0,0 l/m 8,6 km/h (2 Bft) N-NW 14,4 C 15,1 C 15,6 km/h (3 Bft)
01.06.2013 01:00 16,3 C 89 % 1006,7 hPa 0,0 l/m 7,3 km/h (2 Bft) N-NW 14,4 C 15,6 C 13,0 km/h (3 Bft)
01.06.2013 02:00 15,7 C 90 % 1006,9 hPa 0,0 l/m 4,4 km/h (1 Bft) N-NW 14,0 C 15,6 C 8,6 km/h (2 Bft)
01.06.2013 03:00 15,9 C 90 % 1007,1 hPa 0,0 l/m 7,9 km/h (2 Bft) N 14,2 C 15,1 C 14,8 km/h (3 Bft)
01.06.2013 04:00 15,8 C 90 % 1007,2 hPa 0,0 l/m 7,0 km/h (2 Bft) N-NW 14,2 C 15,4 C 13,2 km/h (3 Bft)
01.06.2013 05:00 15,6 C 91 % 1007,5 hPa 0,0 l/m 7,5 km/h (2 Bft) N-NW 14,1 C 15,0 C 14,2 km/h (3 Bft)
01.06.2013 06:00 15,4 C 91 % 1007,7 hPa 0,0 l/m 8,0 km/h (2 Bft) NW 14,0 C 14,5 C 16,4 km/h (3 Bft)
01.06.2013 07:00 15,2 C 91 % 1008,0 hPa 0,0 l/m 6,2 km/h (2 Bft) W-NW 13,8 C 14,9 C 13,8 km/h (3 Bft)
01.06.2013 08:00 14,4 C 92 % 1008,8 hPa 0,0 l/m 6,0 km/h (2 Bft) NW 13,2 C 14,1 C 12,1 km/h (2 Bft)
01.06.2013 09:00 14,2 C 92 % 1009,4 hPa 0,0 l/m 5,9 km/h (2 Bft) NW 13,0 C 14,1 C 12,9 km/h (3 Bft)
01.06.2013 10:00 14,5 C 91 % 1009,8 hPa 0,0 l/m 4,6 km/h (1 Bft) W-NW 13,1 C 14,5 C 10,5 km/h (2 Bft)
01.06.2013 11:00 14,8 C 91 % 1010,0 hPa 0,0 l/m 4,3 km/h (1 Bft) NW 13,2 C 14,8 C 10,8 km/h (2 Bft)
01.06.2013 12:00 15,2 C 90 % 1010,2 hPa 0,0 l/m 5,6 km/h (2 Bft) NW 13,5 C 15,1 C 12,9 km/h (3 Bft)
01.06.2013 13:00 15,8 C 88 % 1010,3 hPa 0,0 l/m 6,6 km/h (2 Bft) W-NW 13,9 C 15,6 C 14,9 km/h (3 Bft)
01.06.2013 14:00 16,2 C 87 % 1010,4 hPa 0,0 l/m 5,6 km/h (2 Bft) NW 14,0 C 16,2 C 14,1 km/h (3 Bft)
01.06.2013 15:00 15,6 C 87 % 1010,8 hPa 0,0 l/m 4,1 km/h (1 Bft) N 13,4 C 15,6 C 8,9 km/h (2 Bft)
01.06.2013 16:00 14,6 C 88 % 1011,2 hPa 0,0 l/m 5,7 km/h (2 Bft) W-NW 12,7 C 14,6 C 11,0 km/h (2 Bft)
01.06.2013 17:00 14,5 C 88 % 1011,4 hPa 0,0 l/m 6,4 km/h (2 Bft) W-NW 12,5 C 14,5 C 6,4 km/h (2 Bft)
01.06.2013 18:00 14,3 C 88 % 1011,6 hPa 0,0 l/m 6,3 km/h (2 Bft) W-NW 12,3 C 14,2 C 7,4 km/h (2 Bft)
01.06.2013 19:00 13,5 C 88 % 1012,0 hPa 0,0 l/m 9,4 km/h (2 Bft) N-NW 11,5 C 11,8 C 18,8 km/h (3 Bft)
01.06.2013 20:00 13,3 C 88 % 1012,5 hPa 0,0 l/m 9,7 km/h (2 Bft) N-NW 11,4 C 11,4 C 9,7 km/h (2 Bft)
01.06.2013 21:00 13,3 C 88 % 1013,3 hPa 0,0 l/m 9,7 km/h (2 Bft) N-NW 11,4 C 11,4 C 9,7 km/h (2 Bft)
01.06.2013 22:00 12,8 C 89 % 1013,9 hPa 0,0 l/m 9,0 km/h (2 Bft) N-NW 11,0 C 11,2 C 11,6 km/h (2 Bft)
01.06.2013 23:00 11,1 C 92 % 1014,4 hPa 0,0 l/m 8,5 km/h (2 Bft) N-NW 9,9 C 9,8 C 12,6 km/h (3 Bft)
02.06.2013 00:00 11,0 C 92 % 1014,4 hPa 0,0 l/m 9,6 km/h (2 Bft) N-NW 9,7 C 8,9 C 11,9 km/h (2 Bft)
02.06.2013 01:00 10,4 C 91 % 1014,8 hPa 0,0 l/m 8,4 km/h (2 Bft) W-NW 9,0 C 9,0 C 18,5 km/h (3 Bft)
02.06.2013 02:00 10,3 C 90 % 1015,4 hPa 0,0 l/m 7,6 km/h (2 Bft) NW 8,6 C 9,4 C 17,7 km/h (3 Bft)
02.06.2013 03:00 10,1 C 88 % 1015,7 hPa 0,0 l/m 8,3 km/h (2 Bft) NW 8,3 C 8,8 C 17,8 km/h (3 Bft)
02.06.2013 04:00 9,8 C 87 % 1015,6 hPa 0,0 l/m 8,1 km/h (2 Bft) N-NW 7,7 C 8,5 C 19,7 km/h (3 Bft)
02.06.2013 05:00 9,6 C 86 % 1016,1 hPa 0,0 l/m 9,0 km/h (2 Bft) W-NW 7,4 C 7,9 C 19,4 km/h (3 Bft)
02.06.2013 06:00 9,7 C 86 % 1016,4 hPa 0,0 l/m 8,2 km/h (2 Bft) N-NW 7,4 C 8,4 C 17,3 km/h (3 Bft)
02.06.2013 07:00 9,9 C 84 % 1016,7 hPa 0,0 l/m 10,1 km/h (2 Bft) NW 7,3 C 7,5 C 21,0 km/h (4 Bft)
02.06.2013 08:00 10,8 C 80 % 1017,0 hPa 0,0 l/m 11,3 km/h (2 Bft) NW 7,4 C 8,0 C 21,6 km/h (4 Bft)
02.06.2013 09:00 12,1 C 75 % 1017,6 hPa 0,0 l/m 11,2 km/h (2 Bft) NW 7,9 C 9,4 C 22,6 km/h (4 Bft)
02.06.2013 10:00 12,6 C 74 % 1018,0 hPa 0,0 l/m 11,0 km/h (2 Bft) NW 8,1 C 10,0 C 20,5 km/h (4 Bft)
02.06.2013 11:00 13,4 C 72 % 1018,3 hPa 0,0 l/m 11,3 km/h (2 Bft) NW 8,4 C 10,8 C 22,1 km/h (4 Bft)
02.06.2013 12:00 13,9 C 71 % 1018,5 hPa 0,0 l/m 10,1 km/h (2 Bft) NW 8,6 C 11,9 C 22,0 km/h (4 Bft)
02.06.2013 13:00 14,3 C 68 % 1018,8 hPa 0,0 l/m 11,2 km/h (2 Bft) N-NW 8,6 C 11,9 C 23,6 km/h (4 Bft)
02.06.2013 14:00 14,7 C 67 % 1019,1 hPa 0,0 l/m 10,8 km/h (2 Bft) N-NW 8,7 C 12,5 C 21,7 km/h (4 Bft)
02.06.2013 15:00 14,7 C 67 % 1019,4 hPa 0,0 l/m 12,6 km/h (3 Bft) NW 8,6 C 11,7 C 24,3 km/h (4 Bft)
02.06.2013 16:00 14,3 C 67 % 1019,7 hPa 0,0 l/m 12,4 km/h (2 Bft) N-NW 8,3 C 11,4 C 24,4 km/h (4 Bft)
02.06.2013 17:00 14,7 C 65 % 1020,2 hPa 0,0 l/m 12,9 km/h (3 Bft) NW 8,1 C 11,6 C 25,1 km/h (4 Bft)
02.06.2013 18:00 14,1 C 66 % 1020,5 hPa 0,0 l/m 12,0 km/h (2 Bft) N-NW 7,9 C 11,3 C 22,0 km/h (4 Bft)
02.06.2013 19:00 13,5 C 66 % 1021,1 hPa 0,0 l/m 11,9 km/h (2 Bft) NW 7,3 C 10,6 C 22,7 km/h (4 Bft)
02.06.2013 20:00 12,2 C 71 % 1021,7 hPa 0,0 l/m 9,4 km/h (2 Bft) NW 7,2 C 10,4 C 19,2 km/h (3 Bft)
02.06.2013 21:00 11,2 C 76 % 1022,5 hPa 0,0 l/m 8,5 km/h (2 Bft) N-NW 7,1 C 9,9 C 16,8 km/h (3 Bft)
02.06.2013 22:00 10,3 C 80 % 1023,3 hPa 0,0 l/m 7,1 km/h (2 Bft) NW 7,0 C 9,7 C 14,9 km/h (3 Bft)
02.06.2013 23:00 9,6 C 82 % 1023,6 hPa 0,0 l/m 7,0 km/h (2 Bft) N-NW 6,7 C 9,1 C 15,4 km/h (3 Bft)
Min-Datum _ 28.05.13 02.06.13 29.05.13 - 27.05.13 - 28.05.13 02.06.13 27.05.13
_ Min-Zeit 00:10 17:15 07:30 - 00:50 - 00:10 07:10 00:50
Minimum _ 6,1 C 62 % 997,2 hPa - 0,0 km/h (0 Bft) - 5,5 C 5,3 C 0,0 km/h (0 Bft)
Max-Datum _ 31.05.13 27.05.13 02.06.13 30.05.13 31.05.13 - 31.05.13 30.05.13 31.05.13
_ Max-Zeit 16:00 00:00 23:40 18:50 16:15 - 18:00 17:10 17:35
Maximum _ 20,8 C 98 % 1023,7 hPa 8,0 l/m 23,2 km/h
N-NO (4 Bft)
- 15,5 C 18,8 C 38,6 km/h
N (6 Bft)
Durchschnitt _ 13,2 C 88 % 1007,1 hPa #32,2 l/m 5,6 km/h (2 Bft) N-NW 11,2 C 12,4 C 10,7 km/h (2 Bft)